Time;durP1;ratioP1;P1;durP2;ratioP2;P2;SDS_P1;SDS_P2;PMS_P1;PMS_P2;Temp;Humidity;BMP_temperature;BMP_pressure;BME280_temperature;BME280_humidity;BME280_pressure;Samples;Min_cycle;Max_cycle;Signal;HPM_P1;HPM_P2
2023/06/17 04:02:05;;;;;;;10.00;6.13;;;18.40;92.70;;;;;;5240322;23;20097;-70
2023/06/17 04:04:34;;;;;;;9.73;6.00;;;18.30;92.90;;;;;;4979319;28;20022;-71
2023/06/17 04:07:00;;;;;;;8.50;6.28;;;18.30;93.10;;;;;;4996938;28;20530;-72
2023/06/17 04:09:25;;;;;;;8.73;6.00;;;18.10;93.40;;;;;;4996755;28;20030;-71
2023/06/17 04:11:51;;;;;;;9.85;6.25;;;18.10;93.60;;;;;;4982997;28;20023;-71
2023/06/17 04:14:17;;;;;;;10.77;6.07;;;18.00;93.70;;;;;;4978209;28;20023;-66
2023/06/17 04:16:43;;;;;;;8.32;5.90;;;17.90;94.00;;;;;;4976866;28;20047;-66
2023/06/17 04:19:13;;;;;;;8.52;5.35;;;17.90;94.00;;;;;;4977115;28;20015;-66
2023/06/17 04:21:40;;;;;;;8.82;6.40;;;17.70;94.10;;;;;;4977133;28;20397;-66
2023/06/17 04:24:06;;;;;;;9.43;5.70;;;17.60;94.60;;;;;;4959725;28;20039;-66
2023/06/17 04:26:32;;;;;;;8.43;6.47;;;17.70;95.00;;;;;;4977119;28;20109;-66
2023/06/17 04:29:00;;;;;;;7.82;6.03;;;17.70;94.80;;;;;;4977096;28;20018;-66
2023/06/17 04:31:27;;;;;;;6.90;5.80;;;17.50;95.30;;;;;;4976794;28;20057;-66
2023/06/17 04:33:55;;;;;;;8.02;6.13;;;17.50;94.90;;;;;;4976971;28;20027;-66
2023/06/17 04:36:24;;;;;;;8.80;5.95;;;17.50;95.00;;;;;;4977614;28;20054;-66
2023/06/17 04:38:49;;;;;;;9.18;5.65;;;17.60;94.70;;;;;;4977447;28;20542;-66
2023/06/17 04:41:16;;;;;;;8.38;5.82;;;17.70;94.40;;;;;;4977273;28;20039;-65
2023/06/17 04:43:48;;;;;;;;;;;17.60;94.40;;;;;;4960169;28;20023;-66
2023/06/17 04:46:16;;;;;;;8.38;5.55;;;17.60;94.20;;;;;;4960201;28;19921;-66
2023/06/17 04:48:43;;;;;;;7.85;5.75;;;17.50;94.50;;;;;;4977306;28;20027;-66
2023/06/17 04:51:09;;;;;;;9.18;5.88;;;17.50;94.60;;;;;;4959243;28;20033;-67
2023/06/17 04:53:38;;;;;;;11.40;5.60;;;17.60;94.70;;;;;;4976671;28;20491;-67
2023/06/17 04:56:04;;;;;;;8.80;5.82;;;17.60;94.80;;;;;;4976323;28;20031;-67
2023/06/17 04:58:30;;;;;;;8.18;6.30;;;17.80;94.30;;;;;;4976786;28;20393;-67
2023/06/17 05:00:55;;;;;;;8.57;5.60;;;17.70;94.50;;;;;;4958811;28;20026;-67
2023/06/17 05:03:21;;;;;;;8.27;6.47;;;17.80;95.20;;;;;;4976689;28;20270;-67
2023/06/17 05:05:46;;;;;;;8.77;6.05;;;18.00;95.10;;;;;;4958542;28;20031;-67
2023/06/17 05:08:12;;;;;;;10.35;6.10;;;18.00;95.20;;;;;;4976486;28;20432;-68
2023/06/17 05:10:37;;;;;;;13.05;6.75;;;18.10;95.20;;;;;;4976538;28;20482;-68
2023/06/17 05:13:03;;;;;;;8.77;6.68;;;18.10;95.80;;;;;;4976313;28;20403;-66
2023/06/17 05:15:28;;;;;;;9.75;7.57;;;18.00;97.30;;;;;;4976344;28;20114;-68
2023/06/17 05:17:54;;;;;;;9.90;6.87;;;18.00;97.80;;;;;;4959114;28;20113;-67
2023/06/17 05:20:20;;;;;;;10.23;7.25;;;18.20;97.70;;;;;;4976134;28;20393;-68
2023/06/17 05:22:45;;;;;;;9.40;7.32;;;18.20;97.90;;;;;;4976037;28;20038;-67
2023/06/17 05:25:11;;;;;;;10.32;7.63;;;18.40;98.20;;;;;;4976103;28;20023;-67
2023/06/17 05:27:38;;;;;;;11.10;7.53;;;18.50;98.10;;;;;;4976183;28;20066;-67
2023/06/17 05:30:05;;;;;;;11.05;7.72;;;18.20;99.00;;;;;;4958677;28;20101;-67
2023/06/17 05:32:30;;;;;;;9.68;7.10;;;18.40;98.60;;;;;;4975640;28;20027;-67
2023/06/17 05:34:56;;;;;;;11.05;6.97;;;18.60;98.00;;;;;;4975623;28;20386;-66
2023/06/17 05:37:21;;;;;;;10.15;7.60;;;18.50;97.60;;;;;;4975967;28;20042;-67
2023/06/17 05:39:47;;;;;;;10.95;7.15;;;18.50;97.50;;;;;;4976028;28;20055;-66
2023/06/17 05:42:13;;;;;;;10.65;7.07;;;18.60;97.60;;;;;;4975525;28;20039;-67
2023/06/17 05:44:39;;;;;;;8.43;7.53;;;18.70;97.20;;;;;;4975747;28;20085;-67
2023/06/17 05:47:05;;;;;;;13.30;7.63;;;18.80;96.80;;;;;;4975548;28;20038;-67
2023/06/17 05:49:30;;;;;;;10.95;6.88;;;18.80;96.80;;;;;;4959034;28;20023;-67
2023/06/17 05:51:56;;;;;;;9.23;6.85;;;18.90;96.60;;;;;;4977266;28;20027;-68
2023/06/17 05:54:21;;;;;;;10.43;7.50;;;18.90;97.00;;;;;;4976993;28;20030;-67
2023/06/17 05:56:47;;;;;;;10.35;7.28;;;19.00;96.60;;;;;;4976312;28;20049;-67
2023/06/17 05:59:13;;;;;;;12.27;7.30;;;19.10;96.10;;;;;;4975780;28;20034;-66
2023/06/17 06:01:38;;;;;;;10.52;7.15;;;19.20;96.00;;;;;;4975183;28;20031;-67
2023/06/17 06:04:04;;;;;;;10.30;6.32;;;19.40;95.40;;;;;;4983663;28;20471;-66
2023/06/17 06:06:29;;;;;;;14.95;7.60;;;19.50;95.10;;;;;;4995202;28;20561;-67
2023/06/17 06:08:55;;;;;;;9.88;6.65;;;19.50;94.70;;;;;;4995597;28;20058;-67
2023/06/17 06:11:20;;;;;;;9.25;6.85;;;19.50;94.60;;;;;;4994733;28;20066;-67
2023/06/17 06:13:46;;;;;;;10.18;6.82;;;19.50;94.30;;;;;;4994124;28;20113;-68
2023/06/17 06:16:12;;;;;;;10.32;7.28;;;19.60;94.30;;;;;;4988390;28;20115;-68
2023/06/17 06:18:40;;;;;;;9.60;6.80;;;19.50;94.40;;;;;;4994569;28;20037;-68
2023/06/17 06:21:06;;;;;;;9.45;6.78;;;19.70;94.00;;;;;;4994445;28;20085;-67
2023/06/17 06:23:32;;;;;;;10.20;6.82;;;19.70;93.90;;;;;;4994724;28;20030;-67
2023/06/17 06:25:57;;;;;;;8.35;7.05;;;19.90;93.40;;;;;;4994831;28;20046;-67
2023/06/17 06:28:23;;;;;;;8.85;6.65;;;20.00;93.00;;;;;;4994548;28;20022;-66
2023/06/17 06:30:48;;;;;;;7.97;6.38;;;20.10;92.70;;;;;;4993889;28;20041;-67
2023/06/17 06:33:14;;;;;;;8.93;6.50;;;20.10;92.40;;;;;;4976585;28;20026;-66
2023/06/17 06:35:41;;;;;;;10.60;6.38;;;20.30;92.20;;;;;;4994294;28;20034;-67
2023/06/17 06:38:07;;;;;;;8.35;6.97;;;20.20;92.10;;;;;;4993948;28;20030;-67
2023/06/17 06:40:32;;;;;;;10.85;6.82;;;20.40;92.10;;;;;;4976243;28;20030;-67
2023/06/17 06:42:58;;;;;;;9.13;6.95;;;20.40;91.90;;;;;;4994593;28;20033;-67
2023/06/17 06:45:23;;;;;;;10.55;6.20;;;20.30;91.70;;;;;;4993926;28;20018;-66
2023/06/17 06:47:49;;;;;;;9.57;6.55;;;20.40;91.50;;;;;;4993800;28;20380;-66
2023/06/17 06:50:14;;;;;;;10.02;5.95;;;20.70;90.50;;;;;;4993292;28;20517;-64
2023/06/17 06:52:40;;;;;;;10.88;6.32;;;20.90;90.00;;;;;;4990634;28;20432;-64
2023/06/17 06:55:06;;;;;;;8.55;6.10;;;20.90;89.80;;;;;;4991001;28;20889;-64
2023/06/17 06:57:31;;;;;;;7.43;6.00;;;20.90;89.60;;;;;;4983532;28;20113;-64
2023/06/17 06:59:57;;;;;;;10.43;6.78;;;21.00;89.60;;;;;;4988430;28;20046;-63
2023/06/17 07:02:22;;;;;;;8.82;6.13;;;21.00;88.60;;;;;;4991557;28;20034;-64
2023/06/17 07:04:48;;;;;;;8.98;6.70;;;21.20;88.00;;;;;;4992445;28;20471;-64
2023/06/17 07:07:13;;;;;;;9.90;6.60;;;21.20;87.60;;;;;;4993784;28;20150;-64
2023/06/17 07:09:39;;;;;;;8.60;6.43;;;21.10;88.30;;;;;;4991826;28;20038;-65
2023/06/17 07:12:06;;;;;;;7.68;6.22;;;21.30;87.80;;;;;;4990695;28;20419;-64
2023/06/17 07:14:31;;;;;;;7.78;6.47;;;21.30;88.00;;;;;;4993981;28;20031;-64
2023/06/17 07:16:57;;;;;;;9.07;6.35;;;21.50;86.50;;;;;;4992950;28;20561;-64
2023/06/17 07:19:23;;;;;;;9.23;5.70;;;21.60;86.50;;;;;;4993005;28;20057;-63
2023/06/17 07:21:48;;;;;;;8.32;5.93;;;21.90;84.60;;;;;;4993461;28;20479;-63
2023/06/17 07:24:15;;;;;;;7.97;5.90;;;21.90;84.00;;;;;;4983264;28;20062;-64
2023/06/17 07:26:41;;;;;;;7.35;5.70;;;21.90;83.80;;;;;;4992375;28;20027;-64
2023/06/17 07:29:06;;;;;;;8.63;5.90;;;21.90;84.00;;;;;;4996990;28;20037;-64
2023/06/17 07:31:32;;;;;;;10.35;6.15;;;21.90;84.20;;;;;;4993951;28;20052;-64
2023/06/17 07:33:58;;;;;;;8.40;6.07;;;22.00;83.80;;;;;;4998312;28;20026;-65
2023/06/17 07:36:23;;;;;;;8.18;6.30;;;22.10;83.50;;;;;;4997499;28;20026;-67
2023/06/17 07:38:50;;;;;;;8.32;5.57;;;22.10;82.80;;;;;;4997420;28;20031;-67
2023/06/17 07:41:15;;;;;;;9.00;6.22;;;22.10;83.00;;;;;;4997389;28;20022;-67
2023/06/17 07:43:41;;;;;;;8.98;5.78;;;22.20;82.70;;;;;;4997168;28;20537;-67
2023/06/17 07:46:07;;;;;;;;;;;22.80;81.70;;;;;;4997827;28;20030;-67
2023/06/17 07:48:33;;;;;;;8.52;5.28;;;24.50;77.90;;;;;;4997510;28;19917;-68
2023/06/17 07:50:59;;;;;;;8.35;5.72;;;26.40;73.10;;;;;;4997227;28;20428;-69
2023/06/17 07:53:24;;;;;;;8.15;5.70;;;27.80;69.60;;;;;;4997511;28;20022;-68
2023/06/17 07:55:52;;;;;;;8.50;6.03;;;28.40;66.70;;;;;;4997059;28;20034;-68
2023/06/17 07:58:18;;;;;;;6.00;5.40;;;27.50;66.60;;;;;;4996905;28;20059;-67
2023/06/17 08:00:43;;;;;;;6.55;5.47;;;26.40;68.80;;;;;;4996936;28;20057;-67
2023/06/17 08:03:09;;;;;;;8.63;5.70;;;26.00;69.50;;;;;;4995157;28;20039;-65
2023/06/17 08:05:36;;;;;;;8.23;5.65;;;26.00;70.10;;;;;;4996817;28;20018;-66
2023/06/17 08:08:02;;;;;;;7.07;5.28;;;26.30;69.80;;;;;;4996116;28;20034;-64
2023/06/17 08:10:27;;;;;;;7.45;5.75;;;27.80;68.10;;;;;;4993535;28;20034;-66
2023/06/17 08:12:53;;;;;;;9.43;5.93;;;29.90;64.20;;;;;;4994936;28;20034;-66
2023/06/17 08:15:19;;;;;;;9.88;5.28;;;31.40;62.50;;;;;;4975809;28;20086;-68
2023/06/17 08:17:45;;;;;;;6.68;5.13;;;33.10;59.90;;;;;;4963320;28;20435;-69
2023/06/17 08:20:11;;;;;;;7.43;5.00;;;34.60;57.50;;;;;;4996611;28;20030;-67
2023/06/17 08:22:36;;;;;;;7.53;5.20;;;36.10;55.80;;;;;;4996461;28;20502;-67
2023/06/17 08:25:03;;;;;;;5.57;4.78;;;37.60;53.70;;;;;;4996342;28;20038;-68
2023/06/17 08:27:28;;;;;;;7.28;5.63;;;38.30;52.60;;;;;;4996521;28;20076;-69
2023/06/17 08:29:54;;;;;;;6.32;5.05;;;37.70;51.50;;;;;;4976543;28;20027;-67
2023/06/17 08:32:19;;;;;;;6.68;5.00;;;37.70;51.60;;;;;;4978559;28;20447;-68
2023/06/17 08:34:45;;;;;;;5.65;4.85;;;38.30;51.50;;;;;;4994063;28;20029;-68
2023/06/17 08:37:10;;;;;;;8.38;4.95;;;39.40;50.70;;;;;;4996184;28;20049;-67
2023/06/17 08:39:39;;;;;;;6.25;4.95;;;40.60;49.60;;;;;;4995425;28;20022;-67
2023/06/17 08:42:05;;;;;;;6.85;5.32;;;41.90;48.80;;;;;;4995944;28;20022;-68
2023/06/17 08:44:33;;;;;;;9.55;5.35;;;42.80;47.90;;;;;;4992410;28;20105;-68
2023/06/17 08:47:03;;;;;;;7.82;5.30;;;42.80;47.30;;;;;;4982192;28;20033;-67
2023/06/17 08:49:29;;;;;;;7.43;5.07;;;42.90;47.00;;;;;;4995219;28;20113;-67
2023/06/17 08:51:58;;;;;;;9.02;4.90;;;41.90;46.60;;;;;;4991379;28;20026;-66
2023/06/17 08:54:25;;;;;;;6.50;5.47;;;41.00;47.40;;;;;;4996322;28;20035;-67
2023/06/17 08:56:53;;;;;;;7.03;5.32;;;41.50;47.40;;;;;;4995824;28;20368;-67
2023/06/17 08:59:18;;;;;;;8.35;5.00;;;42.30;47.10;;;;;;4996093;28;20439;-68
2023/06/17 09:01:44;;;;;;;6.30;4.85;;;41.50;46.70;;;;;;4995570;28;20117;-68
2023/06/17 09:04:12;;;;;;;7.18;5.65;;;41.10;47.70;;;;;;4994776;28;20044;-67
2023/06/17 09:06:38;;;;;;;6.90;5.28;;;39.30;47.60;;;;;;4978265;28;20030;-67
2023/06/17 09:09:03;;;;;;;5.70;5.03;;;38.00;49.80;;;;;;4994832;28;20113;-68
2023/06/17 09:11:31;;;;;;;8.25;5.25;;;39.30;49.10;;;;;;4995641;28;20030;-68
2023/06/17 09:13:58;;;;;;;6.47;5.25;;;39.80;48.00;;;;;;4995766;28;20026;-68
2023/06/17 09:16:33;;;;;;;8.45;4.88;;;41.30;47.40;;;;;;4995716;28;20110;-67
2023/06/17 09:19:08;;;;;;;5.25;4.75;;;42.50;46.00;;;;;;4995826;28;20034;-68
2023/06/17 09:21:35;;;;;;;8.27;4.88;;;43.10;45.30;;;;;;4995503;28;20023;-68
2023/06/17 09:24:05;;;;;;;11.48;5.45;;;42.80;45.10;;;;;;4995359;28;20030;-68
2023/06/17 09:26:40;;;;;;;5.40;4.90;;;43.70;45.00;;;;;;4995548;28;20019;-68
2023/06/17 09:29:13;;;;;;;6.60;4.38;;;44.50;44.30;;;;;;4995586;28;20069;-68
2023/06/17 09:31:52;;;;;;;7.25;4.38;;;43.40;43.90;;;;;;4994831;28;20045;-68
2023/06/17 09:34:19;;;;;;;7.72;4.57;;;43.80;44.30;;;;;;4995553;28;20080;-68
2023/06/17 09:36:46;;;;;;;5.88;5.28;;;43.90;44.10;;;;;;4995157;28;20026;-68
2023/06/17 09:39:13;;;;;;;5.55;4.90;;;44.30;43.60;;;;;;4995072;28;20026;-68
2023/06/17 09:41:45;;;;;;;6.68;4.82;;;42.90;44.00;;;;;;4995201;28;20018;-68
2023/06/17 09:44:12;;;;;;;5.47;4.65;;;43.20;43.90;;;;;;4995546;28;20510;-68
2023/06/17 09:46:46;;;;;;;5.90;5.03;;;43.50;43.70;;;;;;4977284;28;20026;-68
2023/06/17 09:49:15;;;;;;;6.25;4.55;;;43.80;43.40;;;;;;4994899;28;20026;-68
2023/06/17 09:51:45;;;;;;;5.05;4.38;;;44.20;42.90;;;;;;4993969;28;20377;-68
2023/06/17 09:54:10;;;;;;;5.30;4.80;;;43.60;43.10;;;;;;4977741;28;20164;-67
2023/06/17 09:56:37;;;;;;;8.60;5.20;;;42.90;43.00;;;;;;4994983;28;20034;-66
2023/06/17 09:59:03;;;;;;;6.00;5.20;;;41.70;43.70;;;;;;4992355;28;20033;-67
2023/06/17 10:01:30;;;;;;;6.60;4.70;;;41.30;44.40;;;;;;4994376;28;20415;-67
2023/06/17 10:04:02;;;;;;;5.57;5.03;;;39.40;44.80;;;;;;4993999;28;20030;-68
2023/06/17 10:06:30;;;;;;;7.30;5.20;;;38.30;46.00;;;;;;4995346;28;20395;-68
2023/06/17 10:08:57;;;;;;;7.15;5.03;;;37.90;47.10;;;;;;4994683;28;20025;-69
2023/06/17 10:11:24;;;;;;;6.13;5.50;;;36.70;46.80;;;;;;4994699;28;20084;-68
2023/06/17 10:13:55;;;;;;;6.65;5.07;;;37.30;47.20;;;;;;4977607;28;20019;-68
2023/06/17 10:16:25;;;;;;;7.38;4.78;;;38.90;45.80;;;;;;4995419;28;20027;-65
2023/06/17 10:18:53;;;;;;;5.93;5.00;;;40.10;44.60;;;;;;4995084;28;20033;-65
2023/06/17 10:21:22;;;;;;;6.38;4.90;;;38.10;44.70;;;;;;4995747;28;20029;-65
2023/06/17 10:23:48;;;;;;;5.78;4.90;;;39.40;45.20;;;;;;4995435;28;20018;-64
2023/06/17 10:26:14;;;;;;;5.75;5.25;;;40.40;44.20;;;;;;4995044;28;20038;-65
2023/06/17 10:29:01;;;;;;;6.18;4.82;;;41.20;44.20;;;;;;4995408;28;20026;-66
2023/06/17 10:31:29;;;;;;;4.75;4.22;;;42.00;43.50;;;;;;4976875;28;20018;-66
2023/06/17 10:33:55;;;;;;;6.85;3.95;;;42.30;41.70;;;;;;4988006;28;20026;-65
2023/06/17 10:36:22;;;;;;;6.93;4.03;;;41.70;42.20;;;;;;4978709;28;20023;-65
2023/06/17 10:39:04;;;;;;;6.07;3.63;;;42.30;40.50;;;;;;4985349;28;20046;-65
2023/06/17 10:41:38;;;;;;;5.88;3.70;;;42.10;39.90;;;;;;4986450;28;20038;-65
2023/06/17 10:44:26;;;;;;;5.05;3.50;;;42.70;39.90;;;;;;4976251;28;20419;-65
2023/06/17 10:46:52;;;;;;;4.43;3.25;;;42.90;39.50;;;;;;4994602;28;20022;-65
2023/06/17 10:49:18;;;;;;;4.03;3.63;;;43.00;39.20;;;;;;4994253;28;20037;-64
2023/06/17 10:51:48;;;;;;;4.43;3.95;;;42.20;39.60;;;;;;4993268;28;20041;-66
2023/06/17 10:54:14;;;;;;;5.13;3.80;;;42.20;40.10;;;;;;4986814;28;20041;-65
2023/06/17 10:57:06;;;;;;;5.40;4.00;;;42.30;40.20;;;;;;4992857;28;20022;-69
2023/06/17 10:59:32;;;;;;;10.20;4.22;;;42.20;40.50;;;;;;4979261;28;20169;-65
2023/06/17 11:02:03;;;;;;;6.18;4.10;;;41.00;40.90;;;;;;4989748;28;20042;-65
2023/06/17 11:04:32;;;;;;;7.20;4.07;;;41.20;40.90;;;;;;4987149;28;20034;-65
2023/06/17 11:06:59;;;;;;;6.78;4.20;;;41.20;40.70;;;;;;4992209;28;20030;-67
2023/06/17 11:09:25;;;;;;;5.35;3.85;;;41.30;40.70;;;;;;4991965;28;20019;-66
2023/06/17 11:11:52;;;;;;;6.05;3.90;;;40.10;41.30;;;;;;4992509;28;20029;-65
2023/06/17 11:14:18;;;;;;;4.32;3.92;;;38.10;41.90;;;;;;4993905;28;20480;-65
2023/06/17 11:16:43;;;;;;;5.20;4.10;;;36.20;43.10;;;;;;4994537;28;20041;-65
2023/06/17 11:19:09;;;;;;;4.80;4.40;;;35.10;44.20;;;;;;4993155;28;20027;-66
2023/06/17 11:21:37;;;;;;;5.82;4.35;;;34.60;45.10;;;;;;4985831;28;20023;-65
2023/06/17 11:24:03;;;;;;;7.10;4.70;;;33.80;45.70;;;;;;4976295;28;20023;-68
2023/06/17 11:26:28;;;;;;;4.70;4.30;;;33.10;46.70;;;;;;4975142;28;20419;-68
2023/06/17 11:28:54;;;;;;;4.63;4.03;;;32.70;47.10;;;;;;4975420;28;20023;-69
2023/06/17 11:31:25;;;;;;;5.45;4.90;;;32.50;47.40;;;;;;4976317;28;20027;-69
2023/06/17 11:33:57;;;;;;;7.90;5.47;;;32.30;46.90;;;;;;4976483;28;20026;-69
2023/06/17 11:36:26;;;;;;;5.72;4.53;;;32.00;47.50;;;;;;4994757;28;20038;-71
2023/06/17 11:38:58;;;;;;;5.53;4.40;;;31.60;47.80;;;;;;4996496;28;20033;-68
2023/06/17 11:41:24;;;;;;;9.20;4.70;;;31.30;47.40;;;;;;4997512;28;20018;-65
2023/06/17 11:43:50;;;;;;;5.35;4.40;;;30.90;47.40;;;;;;4977767;28;20117;-71
2023/06/17 11:46:20;;;;;;;6.10;4.10;;;30.80;47.40;;;;;;4993073;28;20061;-70
2023/06/17 11:48:47;;;;;;;6.57;4.57;;;30.70;48.00;;;;;;4979998;28;20023;-70
2023/06/17 11:51:17;;;;;;;6.75;4.20;;;30.80;48.60;;;;;;4957480;28;20395;-69
2023/06/17 11:53:49;;;;;;;6.85;4.57;;;30.80;48.40;;;;;;4974249;28;20448;-69
2023/06/17 11:56:22;;;;;;;5.88;4.63;;;30.70;48.90;;;;;;4958602;28;20031;-69
2023/06/17 11:58:51;;;;;;;5.22;4.72;;;30.40;48.90;;;;;;4984063;28;20399;-71
2023/06/17 12:01:16;;;;;;;6.72;4.95;;;30.30;48.60;;;;;;4966679;28;20042;-70
2023/06/17 12:03:48;;;;;;;6.80;4.60;;;29.90;48.80;;;;;;4990603;28;20644;-71
2023/06/17 12:06:18;;;;;;;6.40;4.50;;;29.70;49.40;;;;;;4992263;28;20073;-67
2023/06/17 12:08:44;;;;;;;6.50;4.38;;;29.80;49.90;;;;;;4992929;28;20031;-71
2023/06/17 12:11:25;;;;;;;5.68;4.97;;;29.90;49.90;;;;;;4992968;28;20601;-71
2023/06/17 12:13:51;;;;;;;6.70;4.40;;;30.20;49.80;;;;;;4989999;28;20054;-70
2023/06/17 12:16:36;;;;;;;6.57;4.80;;;30.00;49.50;;;;;;4997405;28;20046;-70
2023/06/17 12:19:07;;;;;;;6.32;4.53;;;30.20;49.90;;;;;;4992337;28;20019;-70
2023/06/17 12:21:34;;;;;;;8.77;4.78;;;30.30;49.70;;;;;;4987817;28;20083;-71
2023/06/17 12:23:59;;;;;;;5.88;4.75;;;30.20;49.90;;;;;;4997002;28;20050;-69
2023/06/17 12:26:26;;;;;;;8.68;5.05;;;30.10;49.80;;;;;;4996690;28;20184;-71
2023/06/17 12:28:55;;;;;;;7.90;5.03;;;30.00;49.90;;;;;;4979711;28;20414;-70
2023/06/17 12:31:21;;;;;;;6.07;4.72;;;30.10;50.50;;;;;;4996359;28;20026;-71
2023/06/17 12:33:47;;;;;;;6.60;4.43;;;29.80;49.80;;;;;;4993714;28;20113;-70
2023/06/17 12:36:14;;;;;;;6.00;4.50;;;29.70;50.30;;;;;;4978268;28;20037;-72
2023/06/17 12:38:40;;;;;;;7.22;4.68;;;29.90;50.60;;;;;;4995155;28;20041;-69
2023/06/17 12:41:07;;;;;;;9.85;4.72;;;29.90;49.90;;;;;;4996895;28;20022;-71
2023/06/17 12:43:33;;;;;;;6.20;4.40;;;30.00;50.10;;;;;;4995081;28;20027;-68
2023/06/17 12:45:59;;;;;;;5.00;4.50;;;30.00;50.10;;;;;;4996887;28;20507;-68
2023/06/17 12:48:29;;;;;;;6.75;4.80;;;29.90;50.10;;;;;;4996499;28;20049;-68
2023/06/17 12:50:55;;;;;;;8.60;4.70;;;29.90;51.20;;;;;;4979018;28;20030;-68
2023/06/17 12:53:22;;;;;;;6.07;4.70;;;30.00;50.10;;;;;;4993102;28;20042;-67
2023/06/17 12:55:50;;;;;;;6.25;4.50;;;30.00;50.10;;;;;;4995470;28;20050;-67
2023/06/17 12:58:16;;;;;;;5.32;4.82;;;30.20;50.20;;;;;;4997091;28;20035;-69
2023/06/17 13:00:42;;;;;;;7.22;5.20;;;30.20;50.10;;;;;;5001707;28;20040;-69
2023/06/17 13:03:08;;;;;;;6.35;5.32;;;30.20;49.70;;;;;;4998791;28;20031;-72
2023/06/17 13:05:34;;;;;;;7.10;5.30;;;30.00;49.60;;;;;;4996627;28;20034;-67
2023/06/17 13:08:00;;;;;;;6.57;4.82;;;30.00;50.10;;;;;;4998336;28;20030;-68
2023/06/17 13:10:26;;;;;;;6.93;5.18;;;29.80;49.80;;;;;;4998248;28;20030;-67
2023/06/17 13:12:52;;;;;;;6.82;4.80;;;29.80;50.20;;;;;;4998626;28;20025;-69
2023/06/17 13:15:17;;;;;;;6.05;5.38;;;29.80;49.80;;;;;;4998047;28;20026;-68
2023/06/17 13:17:43;;;;;;;8.30;4.88;;;29.90;49.60;;;;;;4994762;28;20050;-66
2023/06/17 13:20:09;;;;;;;7.72;4.95;;;29.90;49.80;;;;;;4996791;28;20132;-65
2023/06/17 13:22:35;;;;;;;7.30;4.90;;;30.10;49.40;;;;;;4994908;28;20463;-66
2023/06/17 13:25:02;;;;;;;7.28;4.93;;;30.00;49.40;;;;;;4996183;28;20112;-66
2023/06/17 13:27:28;;;;;;;6.68;5.07;;;30.00;50.20;;;;;;4996578;28;20324;-66
2023/06/17 13:29:54;;;;;;;7.78;5.10;;;29.80;49.90;;;;;;4997986;28;20535;-67
2023/06/17 13:32:20;;;;;;;5.63;5.03;;;29.80;50.20;;;;;;4995671;28;20065;-66
2023/06/17 13:34:46;;;;;;;7.63;5.10;;;30.00;50.30;;;;;;4977524;28;20081;-65
2023/06/17 13:37:11;;;;;;;8.55;5.05;;;30.20;50.70;;;;;;4993729;28;20034;-65
2023/06/17 13:39:37;;;;;;;8.38;4.70;;;30.40;50.20;;;;;;4992559;28;20080;-66
2023/06/17 13:42:03;;;;;;;6.55;5.13;;;30.60;49.70;;;;;;4995168;28;20022;-66
2023/06/17 13:44:29;;;;;;;7.95;5.03;;;30.60;49.50;;;;;;4993137;28;20357;-64
2023/06/17 13:46:58;;;;;;;6.65;4.60;;;30.60;49.40;;;;;;4985932;28;20093;-67
2023/06/17 13:49:23;;;;;;;6.15;5.07;;;30.80;50.00;;;;;;4994509;28;20387;-66
2023/06/17 13:51:50;;;;;;;6.85;5.00;;;30.90;49.60;;;;;;4994227;28;20134;-66
2023/06/17 13:54:18;;;;;;;8.27;4.47;;;31.00;49.70;;;;;;4971806;28;20113;-67
2023/06/17 13:56:44;;;;;;;5.20;4.63;;;31.00;49.60;;;;;;4971202;28;20034;-67
2023/06/17 13:59:10;;;;;;;8.73;5.55;;;31.10;49.60;;;;;;4974558;28;20089;-67
2023/06/17 14:01:35;;;;;;;6.93;4.90;;;31.20;49.40;;;;;;4994475;28;20038;-65
2023/06/17 14:04:01;;;;;;;6.43;5.47;;;31.20;49.20;;;;;;4974245;28;20040;-65
2023/06/17 14:06:27;;;;;;;10.30;5.45;;;30.90;48.90;;;;;;4988311;28;20034;-68
2023/06/17 14:08:53;;;;;;;7.35;5.10;;;31.00;49.60;;;;;;4992782;28;20029;-65
2023/06/17 14:11:19;;;;;;;6.78;4.95;;;31.10;49.10;;;;;;4990910;28;20405;-66
2023/06/17 14:13:44;;;;;;;11.98;5.25;;;31.30;49.00;;;;;;4989900;28;20375;-66
2023/06/17 14:16:11;;;;;;;7.10;4.88;;;31.40;49.00;;;;;;4988238;28;20033;-66
2023/06/17 14:18:36;;;;;;;7.00;5.10;;;31.50;48.30;;;;;;4993836;28;20026;-66
2023/06/17 14:21:02;;;;;;;6.20;5.07;;;31.30;48.60;;;;;;4993878;28;20545;-66
2023/06/17 14:23:27;;;;;;;10.02;4.82;;;31.30;48.90;;;;;;4994444;28;20060;-66
2023/06/17 14:25:53;;;;;;;5.85;4.38;;;31.10;49.30;;;;;;4994589;28;20386;-67
2023/06/17 14:28:19;;;;;;;6.93;4.82;;;31.00;49.10;;;;;;4985116;28;20401;-67
2023/06/17 14:30:45;;;;;;;5.85;5.25;;;30.90;49.20;;;;;;4990212;28;20018;-66
2023/06/17 14:33:10;;;;;;;5.30;4.80;;;30.70;49.60;;;;;;4990846;28;20369;-65
2023/06/17 14:35:36;;;;;;;9.23;5.22;;;30.70;49.80;;;;;;4992763;28;20030;-67
2023/06/17 14:38:01;;;;;;;6.88;5.38;;;30.90;49.90;;;;;;4988712;28;20372;-65
2023/06/17 14:40:27;;;;;;;10.70;5.43;;;31.00;49.60;;;;;;4993398;28;20026;-66
2023/06/17 14:42:53;;;;;;;18.77;8.48;;;31.10;49.20;;;;;;4994858;28;20081;-66
2023/06/17 14:45:18;;;;;;;7.18;5.40;;;31.00;48.90;;;;;;4994326;28;20121;-67
2023/06/17 14:47:44;;;;;;;5.93;4.90;;;31.00;49.00;;;;;;4994180;28;20019;-67
2023/06/17 14:50:13;;;;;;;7.07;4.80;;;30.90;48.60;;;;;;4994376;28;20018;-67
2023/06/17 14:52:41;;;;;;;11.07;4.95;;;30.80;48.80;;;;;;4991996;28;20022;-67
2023/06/17 14:55:07;;;;;;;7.53;5.20;;;30.90;48.90;;;;;;4991587;28;20029;-66
2023/06/17 14:57:33;;;;;;;5.47;4.95;;;30.90;48.80;;;;;;4994289;28;20473;-66
2023/06/17 14:59:59;;;;;;;7.30;4.93;;;30.90;49.00;;;;;;4992003;28;20058;-67
2023/06/17 15:02:44;;;;;;;5.90;4.60;;;30.80;48.50;;;;;;4987318;28;20101;-66
2023/06/17 15:05:10;;;;;;;8.55;5.10;;;30.80;49.20;;;;;;4994085;28;20046;-66
2023/06/17 15:07:35;;;;;;;7.00;4.88;;;30.80;49.10;;;;;;4988099;28;20027;-66
2023/06/17 15:10:01;;;;;;;5.90;5.28;;;30.70;48.90;;;;;;4992971;28;20512;-67
2023/06/17 15:12:26;;;;;;;6.97;6.25;;;30.60;49.00;;;;;;4991847;28;20023;-67
2023/06/17 15:14:53;;;;;;;8.65;5.10;;;30.70;49.70;;;;;;4987898;28;20042;-67
2023/06/17 15:17:19;;;;;;;6.90;5.45;;;30.80;49.60;;;;;;4994308;28;20026;-66
2023/06/17 15:19:46;;;;;;;8.07;5.25;;;30.90;49.50;;;;;;4990100;28;20021;-66
2023/06/17 15:22:12;;;;;;;8.48;5.95;;;30.80;48.80;;;;;;4987839;28;20053;-66
2023/06/17 15:24:37;;;;;;;7.18;5.03;;;30.60;49.50;;;;;;4993590;28;20062;-66
2023/06/17 15:27:05;;;;;;;5.45;4.47;;;30.50;49.60;;;;;;4993771;28;20513;-66
2023/06/17 15:29:31;;;;;;;5.65;4.70;;;30.60;49.40;;;;;;4994024;28;20018;-67
2023/06/17 15:31:56;;;;;;;5.90;5.30;;;30.70;49.30;;;;;;4993887;28;20026;-67
2023/06/17 15:34:22;;;;;;;6.97;5.32;;;30.70;49.70;;;;;;4993802;28;20103;-67
2023/06/17 15:36:47;;;;;;;6.95;4.88;;;30.60;48.90;;;;;;4976824;28;20032;-67
2023/06/17 15:39:20;;;;;;;7.88;5.07;;;30.70;49.20;;;;;;4993937;28;20037;-67
2023/06/17 15:41:46;;;;;;;6.07;5.15;;;30.70;49.30;;;;;;4994009;28;20470;-67
2023/06/17 15:44:14;;;;;;;5.75;5.15;;;30.50;49.00;;;;;;4993558;28;20026;-68
2023/06/17 15:46:40;;;;;;;6.60;4.97;;;30.50;49.10;;;;;;4991189;28;20023;-66
2023/06/17 15:49:06;;;;;;;7.30;4.80;;;30.20;48.60;;;;;;4993152;28;20022;-65
2023/06/17 15:51:32;;;;;;;5.90;5.25;;;30.00;49.00;;;;;;4996433;28;20023;-66
2023/06/17 15:53:58;;;;;;;8.02;5.47;;;30.00;49.20;;;;;;4995631;28;20034;-72
2023/06/17 15:56:25;;;;;;;8.52;5.35;;;30.20;50.10;;;;;;4996324;28;20026;-71
2023/06/17 15:58:50;;;;;;;5.85;4.60;;;30.30;49.90;;;;;;4997096;28;20031;-70
2023/06/17 16:01:16;;;;;;;9.93;6.43;;;30.20;50.00;;;;;;4979574;28;20171;-71
2023/06/17 16:03:42;;;;;;;7.88;5.20;;;30.20;50.10;;;;;;4989903;28;20031;-70
2023/06/17 16:06:08;;;;;;;6.40;4.85;;;30.20;49.80;;;;;;4997443;28;20023;-70
2023/06/17 16:08:35;;;;;;;6.60;5.07;;;30.20;49.70;;;;;;4979915;28;20026;-72
2023/06/17 16:11:02;;;;;;;6.75;5.30;;;30.10;49.90;;;;;;4995730;28;20018;-68
2023/06/17 16:13:27;;;;;;;7.03;4.93;;;30.20;50.10;;;;;;4995417;28;20026;-65
2023/06/17 16:15:53;;;;;;;11.82;9.00;;;30.00;50.10;;;;;;5019631;23;20506;-63
2023/06/17 16:18:19;;;;;;;6.55;5.57;;;30.00;50.40;;;;;;5011810;28;20032;-62
2023/06/17 16:20:45;;;;;;;6.07;5.18;;;29.90;50.60;;;;;;5013157;28;20025;-62
2023/06/17 16:23:10;;;;;;;6.95;5.20;;;30.00;50.30;;;;;;4999580;28;20022;-65
2023/06/17 16:25:36;;;;;;;6.20;5.60;;;29.80;50.60;;;;;;4993302;28;20031;-66
2023/06/17 16:28:02;;;;;;;7.65;5.00;;;29.90;50.60;;;;;;4977050;28;20019;-65
2023/06/17 16:30:27;;;;;;;6.10;4.85;;;29.80;49.80;;;;;;4995328;28;20034;-64
2023/06/17 16:32:53;;;;;;;10.00;5.10;;;29.70;50.40;;;;;;4975664;28;20022;-64
2023/06/17 16:35:18;;;;;;;8.75;5.35;;;29.80;50.50;;;;;;4993444;28;20026;-64
2023/06/17 16:37:44;;;;;;;7.10;5.28;;;29.90;50.30;;;;;;4996600;28;20065;-65
2023/06/17 16:40:10;;;;;;;6.55;5.22;;;29.80;50.70;;;;;;4996994;28;20027;-65
2023/06/17 16:42:35;;;;;;;7.10;5.70;;;29.80;50.30;;;;;;4995662;28;20049;-64
2023/06/17 16:45:03;;;;;;;4.90;4.22;;;29.70;50.40;;;;;;4978429;28;20022;-65